createdAt,value
2019-01-13T00:00:22.831Z,24.10
2019-01-13T00:01:22.830Z,24.08
2019-01-13T00:02:22.826Z,24.23
2019-01-13T00:03:22.807Z,24.19
2019-01-13T00:04:22.782Z,24.14
2019-01-13T00:05:22.789Z,24.08
2019-01-13T00:06:22.803Z,24.14
2019-01-13T00:07:22.746Z,24.16
2019-01-13T00:08:22.745Z,24.14
2019-01-13T00:09:22.797Z,24.14
2019-01-13T00:10:22.749Z,24.12
2019-01-13T00:11:22.718Z,24.07
2019-01-13T00:12:22.729Z,24.12
2019-01-13T00:13:22.729Z,24.12
2019-01-13T00:14:22.721Z,24.05
2019-01-13T00:15:22.724Z,24.13
2019-01-13T00:16:22.729Z,24.07
2019-01-13T00:17:22.697Z,24.12
2019-01-13T00:18:22.721Z,24.14
2019-01-13T00:19:22.663Z,24.20
2019-01-13T00:20:22.730Z,24.10
2019-01-13T00:21:22.692Z,24.10
2019-01-13T00:22:22.706Z,24.16
2019-01-13T00:23:22.643Z,24.07
2019-01-13T00:24:22.639Z,24.14
2019-01-13T00:25:22.653Z,24.12
2019-01-13T00:26:22.640Z,24.16
2019-01-13T00:27:22.637Z,24.13
2019-01-13T00:28:22.653Z,24.12
2019-01-13T00:29:22.654Z,24.12
2019-01-13T00:30:22.648Z,24.14
2019-01-13T00:31:22.609Z,24.14
2019-01-13T00:32:22.591Z,24.14
2019-01-13T00:33:22.584Z,24.13
2019-01-13T00:34:22.585Z,24.13
2019-01-13T00:35:22.538Z,24.07
2019-01-13T00:36:22.594Z,24.22
2019-01-13T00:37:22.554Z,24.19
2019-01-13T00:38:22.570Z,24.14
2019-01-13T00:39:22.546Z,24.12
2019-01-13T00:40:22.550Z,24.08
2019-01-13T00:41:22.490Z,24.13
2019-01-13T00:42:22.556Z,24.14
2019-01-13T00:43:22.501Z,24.13
2019-01-13T00:44:22.501Z,24.16
2019-01-13T00:45:22.536Z,24.20
2019-01-13T00:46:22.489Z,24.08
2019-01-13T00:47:22.453Z,24.08
2019-01-13T00:48:22.460Z,24.10
2019-01-13T00:49:22.494Z,24.16
2019-01-13T00:50:22.427Z,24.10
2019-01-13T00:51:22.486Z,24.12
2019-01-13T00:52:22.429Z,24.13
2019-01-13T00:53:22.440Z,24.22
2019-01-13T00:54:22.451Z,24.10
2019-01-13T00:55:22.438Z,24.13
2019-01-13T00:56:22.416Z,24.16
2019-01-13T00:57:22.438Z,24.13
2019-01-13T00:58:22.434Z,24.22
2019-01-13T00:59:22.411Z,24.07
2019-01-13T01:00:26.541Z,24.17
2019-01-13T01:01:22.375Z,24.14
2019-01-13T01:02:22.373Z,24.05
2019-01-13T01:03:22.355Z,24.14
2019-01-13T01:04:22.352Z,24.10
2019-01-13T01:05:22.321Z,24.12
2019-01-13T01:06:22.379Z,24.14
2019-01-13T01:07:22.306Z,24.10
2019-01-13T01:08:22.300Z,24.22
2019-01-13T01:09:22.300Z,24.19
2019-01-13T01:10:22.314Z,24.12
2019-01-13T01:11:22.278Z,24.14
2019-01-13T01:12:22.267Z,24.22
2019-01-13T01:13:22.330Z,24.17
2019-01-13T01:14:22.335Z,24.19
2019-01-13T01:15:22.252Z,24.12
2019-01-13T01:16:22.281Z,24.08
2019-01-13T01:17:22.284Z,24.13
2019-01-13T01:18:22.230Z,24.19
2019-01-13T01:19:22.246Z,24.16
2019-01-13T01:20:22.268Z,24.12
2019-01-13T01:21:22.324Z,24.10
2019-01-13T01:22:22.227Z,24.22
2019-01-13T01:23:22.233Z,24.10
2019-01-13T01:24:22.187Z,24.17
2019-01-13T01:25:22.229Z,24.20
2019-01-13T01:26:22.199Z,24.16
2019-01-13T01:27:22.178Z,24.22
2019-01-13T01:28:22.154Z,24.14
2019-01-13T01:29:22.155Z,24.22
2019-01-13T01:30:22.173Z,24.16
2019-01-13T01:31:22.126Z,24.13
2019-01-13T01:32:22.117Z,24.19
2019-01-13T01:33:26.047Z,24.16
2019-01-13T01:34:22.140Z,24.22
2019-01-13T01:35:22.096Z,24.27
2019-01-13T01:36:22.135Z,24.22
2019-01-13T01:37:22.104Z,24.23
2019-01-13T01:38:22.119Z,24.26
2019-01-13T01:39:22.105Z,24.22
2019-01-13T01:40:22.133Z,24.22
2019-01-13T01:41:22.064Z,24.23
2019-01-13T01:42:22.095Z,24.19
2019-01-13T01:43:22.062Z,24.22
2019-01-13T01:44:22.050Z,24.23
2019-01-13T01:45:22.059Z,24.24
2019-01-13T01:46:22.016Z,24.20
2019-01-13T01:47:22.055Z,24.29
2019-01-13T01:48:22.031Z,24.29
2019-01-13T01:49:22.007Z,24.22
2019-01-13T01:50:21.993Z,24.26
2019-01-13T01:51:22.019Z,24.24
2019-01-13T01:52:22.003Z,24.31
2019-01-13T01:53:22.033Z,24.32
2019-01-13T01:54:21.999Z,24.32
2019-01-13T01:55:21.972Z,24.29
2019-01-13T01:56:21.969Z,24.31
2019-01-13T01:57:21.964Z,24.32
2019-01-13T01:58:21.960Z,24.27
2019-01-13T01:59:21.948Z,24.29
2019-01-13T02:00:21.923Z,24.31
2019-01-13T02:01:21.937Z,24.35
2019-01-13T02:02:21.934Z,24.34
2019-01-13T02:03:21.925Z,24.34
2019-01-13T02:04:21.904Z,24.29
2019-01-13T02:05:21.921Z,24.35
2019-01-13T02:06:21.914Z,24.34
2019-01-13T02:07:21.924Z,24.34
2019-01-13T02:08:21.889Z,24.27
2019-01-13T02:09:21.905Z,24.31
2019-01-13T02:10:21.867Z,24.31
2019-01-13T02:11:21.827Z,24.31
2019-01-13T02:12:21.830Z,24.31
2019-01-13T02:13:21.844Z,24.34
2019-01-13T02:14:21.804Z,24.31
2019-01-13T02:15:21.830Z,24.31
2019-01-13T02:16:21.800Z,24.31
2019-01-13T02:17:21.816Z,24.34
2019-01-13T02:18:21.853Z,24.35
2019-01-13T02:19:21.768Z,24.27
2019-01-13T02:20:21.834Z,24.31
2019-01-13T02:21:21.811Z,24.31
2019-01-13T02:22:21.786Z,24.31
2019-01-13T02:23:21.798Z,24.27
2019-01-13T02:24:21.770Z,24.32
2019-01-13T02:25:21.763Z,24.29
2019-01-13T02:26:21.794Z,24.31
2019-01-13T02:27:21.740Z,24.29
2019-01-13T02:28:21.711Z,24.32
2019-01-13T02:29:21.719Z,24.31
2019-01-13T02:30:21.712Z,24.23
2019-01-13T02:31:21.731Z,24.31
2019-01-13T02:32:21.712Z,24.29
2019-01-13T02:33:21.682Z,24.27
2019-01-13T02:34:21.721Z,24.23
2019-01-13T02:35:21.669Z,24.31
2019-01-13T02:36:21.675Z,24.22
2019-01-13T02:37:21.674Z,24.31
2019-01-13T02:38:21.665Z,24.31
2019-01-13T02:39:21.638Z,24.27
2019-01-13T02:40:21.650Z,24.27
2019-01-13T02:41:21.648Z,24.29
2019-01-13T02:42:21.668Z,24.29
2019-01-13T02:43:21.657Z,24.29
2019-01-13T02:44:21.634Z,24.23
2019-01-13T02:45:21.616Z,24.29
2019-01-13T02:46:21.634Z,24.23
2019-01-13T02:47:21.569Z,24.23
2019-01-13T02:48:21.622Z,24.17
2019-01-13T02:49:21.618Z,24.24
2019-01-13T02:50:21.581Z,24.32
2019-01-13T02:51:21.608Z,24.24
2019-01-13T02:52:21.528Z,24.24
2019-01-13T02:53:21.595Z,24.27
2019-01-13T02:54:21.556Z,24.32
2019-01-13T02:55:21.542Z,24.29
2019-01-13T02:56:21.530Z,24.27
2019-01-13T02:57:21.526Z,24.26
2019-01-13T02:58:21.554Z,24.26
2019-01-13T02:59:21.481Z,24.32
2019-01-13T03:00:21.542Z,24.24
2019-01-13T03:01:21.473Z,24.29
2019-01-13T03:02:21.481Z,24.23
2019-01-13T03:03:21.463Z,24.32
2019-01-13T03:04:21.474Z,24.32
2019-01-13T03:05:21.459Z,24.34
2019-01-13T03:06:21.459Z,24.27
2019-01-13T03:07:21.424Z,24.37
2019-01-13T03:08:21.410Z,24.27
2019-01-13T03:09:21.437Z,24.31
2019-01-13T03:10:21.416Z,24.31
2019-01-13T03:11:21.395Z,24.34
2019-01-13T03:12:21.379Z,24.31
2019-01-13T03:13:21.376Z,24.29
2019-01-13T03:14:21.432Z,24.31
2019-01-13T03:15:21.387Z,24.34
2019-01-13T03:16:21.382Z,24.32
2019-01-13T03:17:21.417Z,24.26
2019-01-13T03:18:21.372Z,24.23
2019-01-13T03:19:21.345Z,24.26
2019-01-13T03:20:21.338Z,24.31
2019-01-13T03:21:21.319Z,24.32
2019-01-13T03:22:21.343Z,24.31
2019-01-13T03:23:21.317Z,24.31
2019-01-13T03:24:21.359Z,24.29
2019-01-13T03:25:21.313Z,24.35
2019-01-13T03:26:21.281Z,24.38
2019-01-13T03:27:21.339Z,24.37
2019-01-13T03:28:21.289Z,24.34
2019-01-13T03:29:21.300Z,24.35
2019-01-13T03:30:21.287Z,24.39
2019-01-13T03:31:21.259Z,24.37
2019-01-13T03:32:21.262Z,24.35
2019-01-13T03:33:21.287Z,24.35
2019-01-13T03:34:21.239Z,24.34
2019-01-13T03:35:21.209Z,24.34
2019-01-13T03:36:21.233Z,24.35
2019-01-13T03:37:21.230Z,24.38
2019-01-13T03:38:21.190Z,24.37
2019-01-13T03:39:21.254Z,24.37
2019-01-13T03:40:21.253Z,24.32
2019-01-13T03:41:21.195Z,24.38
2019-01-13T03:42:21.162Z,24.34
2019-01-13T03:43:21.368Z,24.35
2019-01-13T03:44:21.171Z,24.32
2019-01-13T03:45:21.199Z,24.37
2019-01-13T03:46:21.133Z,24.34
2019-01-13T03:47:21.127Z,24.34
2019-01-13T03:48:21.147Z,24.35
2019-01-13T03:49:21.118Z,24.39
2019-01-13T03:50:21.096Z,24.38
2019-01-13T03:51:21.163Z,24.39
2019-01-13T03:52:21.090Z,24.32
2019-01-13T03:53:21.120Z,24.41
2019-01-13T03:54:21.108Z,24.34
2019-01-13T03:55:21.114Z,24.38
2019-01-13T03:56:21.057Z,24.41
2019-01-13T03:57:21.094Z,24.35
2019-01-13T03:58:21.048Z,24.37
2019-01-13T03:59:21.048Z,24.32
2019-01-13T04:00:21.076Z,24.42
2019-01-13T04:01:21.049Z,24.35
2019-01-13T04:02:21.049Z,24.39
2019-01-13T04:03:21.065Z,24.42
2019-01-13T04:04:21.019Z,24.41
2019-01-13T04:05:21.034Z,24.35
2019-01-13T04:06:21.043Z,24.38
2019-01-13T04:07:21.019Z,24.37
2019-01-13T04:08:21.008Z,24.35
2019-01-13T04:09:21.006Z,24.35
2019-01-13T04:10:20.998Z,24.32
2019-01-13T04:11:21.005Z,24.42
2019-01-13T04:12:20.975Z,24.35
2019-01-13T04:13:21.000Z,24.34
2019-01-13T04:14:20.996Z,24.34
2019-01-13T04:15:20.969Z,24.41
2019-01-13T04:16:20.912Z,24.39
2019-01-13T04:17:20.930Z,24.42
2019-01-13T04:18:20.931Z,24.39
2019-01-13T04:19:20.956Z,24.35
2019-01-13T04:20:20.910Z,24.35
2019-01-13T04:21:20.931Z,24.42
2019-01-13T04:22:20.935Z,24.34
2019-01-13T04:23:20.911Z,24.37
2019-01-13T04:24:20.847Z,24.38
2019-01-13T04:25:20.879Z,24.42
2019-01-13T04:26:20.877Z,24.41
2019-01-13T04:27:20.909Z,24.32
2019-01-13T04:28:20.865Z,24.34
2019-01-13T04:29:20.877Z,24.35
2019-01-13T04:30:20.884Z,24.41
2019-01-13T04:31:26.653Z,24.39
2019-01-13T04:32:20.801Z,24.35
2019-01-13T04:33:20.828Z,24.38
2019-01-13T04:34:20.840Z,24.39
2019-01-13T04:35:20.809Z,24.39
2019-01-13T04:36:20.830Z,24.41
2019-01-13T04:37:20.779Z,24.39
2019-01-13T04:38:20.749Z,24.34
2019-01-13T04:39:20.743Z,24.42
2019-01-13T04:40:20.767Z,24.37
2019-01-13T04:41:20.771Z,24.35
2019-01-13T04:42:20.762Z,24.44
2019-01-13T04:43:20.751Z,24.38
2019-01-13T04:44:20.727Z,24.42
2019-01-13T04:45:20.765Z,24.42
2019-01-13T04:46:20.702Z,24.35
2019-01-13T04:47:20.686Z,24.34
2019-01-13T04:48:20.739Z,24.34
2019-01-13T04:49:20.700Z,24.39
2019-01-13T04:50:20.665Z,24.41
2019-01-13T04:51:20.656Z,24.38
2019-01-13T04:52:20.661Z,24.39
2019-01-13T04:53:20.665Z,24.42
2019-01-13T04:54:20.653Z,24.39
2019-01-13T04:55:20.684Z,24.39
2019-01-13T04:56:20.615Z,24.35
2019-01-13T04:57:20.614Z,24.39
2019-01-13T04:58:20.624Z,24.37
2019-01-13T04:59:20.647Z,24.35
2019-01-13T05:00:20.597Z,24.32
2019-01-13T05:01:20.586Z,24.42
2019-01-13T05:02:20.591Z,24.34
2019-01-13T05:03:20.597Z,24.32
2019-01-13T05:04:20.617Z,24.35
2019-01-13T05:05:20.572Z,24.42
2019-01-13T05:06:20.585Z,24.35
2019-01-13T05:07:20.591Z,24.41
2019-01-13T05:08:20.573Z,24.37
2019-01-13T05:09:20.644Z,24.29
2019-01-13T05:10:20.506Z,24.39
2019-01-13T05:11:20.501Z,24.35
2019-01-13T05:12:20.561Z,24.39
2019-01-13T05:13:20.564Z,24.34
2019-01-13T05:14:20.504Z,24.35
2019-01-13T05:15:20.507Z,24.38
2019-01-13T05:16:20.525Z,24.35
2019-01-13T05:17:20.512Z,24.35
2019-01-13T05:18:20.515Z,24.32
2019-01-13T05:19:20.479Z,24.39
2019-01-13T05:20:20.456Z,24.39
2019-01-13T05:21:20.429Z,24.34
2019-01-13T05:22:20.457Z,24.34
2019-01-13T05:23:20.492Z,24.37
2019-01-13T05:24:20.416Z,24.42
2019-01-13T05:25:20.456Z,24.32
2019-01-13T05:26:20.392Z,24.32
2019-01-13T05:27:20.415Z,24.37
2019-01-13T05:28:20.458Z,24.42
2019-01-13T05:29:20.371Z,24.41
2019-01-13T05:30:20.421Z,24.37
2019-01-13T05:31:20.377Z,24.45
2019-01-13T05:32:20.383Z,24.44
2019-01-13T05:33:20.399Z,24.38
2019-01-13T05:34:20.336Z,24.42
2019-01-13T05:35:20.359Z,24.41
2019-01-13T05:36:20.374Z,24.39
2019-01-13T05:37:20.366Z,24.38
2019-01-13T05:38:20.364Z,24.42
2019-01-13T05:39:20.364Z,24.41
2019-01-13T05:40:20.314Z,24.45
2019-01-13T05:41:20.338Z,24.37
2019-01-13T05:42:20.279Z,24.47
2019-01-13T05:43:20.269Z,24.42
2019-01-13T05:44:20.335Z,24.45
2019-01-13T05:45:20.307Z,24.41
2019-01-13T05:46:20.274Z,24.39
2019-01-13T05:47:20.247Z,24.35
2019-01-13T05:48:20.266Z,24.41
2019-01-13T05:49:20.285Z,24.45
2019-01-13T05:50:20.245Z,24.41
2019-01-13T05:51:20.220Z,24.37
2019-01-13T05:52:20.225Z,24.39
2019-01-13T05:53:20.229Z,24.45
2019-01-13T05:54:20.221Z,24.44
2019-01-13T05:55:20.225Z,24.35
2019-01-13T05:56:20.220Z,24.41
2019-01-13T05:57:20.192Z,24.39
2019-01-13T05:58:20.221Z,24.39
2019-01-13T05:59:20.142Z,24.41
2019-01-13T06:00:20.172Z,24.35
2019-01-13T06:01:20.225Z,24.38
2019-01-13T06:02:20.265Z,24.39
2019-01-13T06:03:20.257Z,24.44
2019-01-13T06:04:20.269Z,24.45
2019-01-13T06:05:20.237Z,24.39
2019-01-13T06:06:20.269Z,24.39
2019-01-13T06:07:19.856Z,24.38
2019-01-13T06:08:19.889Z,24.45
2019-01-13T06:09:19.851Z,24.39
2019-01-13T06:10:20.088Z,24.41
2019-01-13T06:11:20.091Z,24.42
2019-01-13T06:12:20.080Z,24.35
2019-01-13T06:13:20.052Z,24.38
2019-01-13T06:14:20.108Z,24.35
2019-01-13T06:15:20.027Z,24.35
2019-01-13T06:16:20.024Z,24.34
2019-01-13T06:17:20.060Z,24.35
2019-01-13T06:18:20.010Z,24.41
2019-01-13T06:19:20.003Z,24.35
2019-01-13T06:20:19.993Z,24.35
2019-01-13T06:21:20.003Z,24.34
2019-01-13T06:22:20.039Z,24.37
2019-01-13T06:23:20.020Z,24.35
2019-01-13T06:24:19.988Z,24.34
2019-01-13T06:25:20.002Z,24.38
2019-01-13T06:26:19.954Z,24.39
2019-01-13T06:27:19.970Z,24.35
2019-01-13T06:28:19.940Z,24.35
2019-01-13T06:29:19.955Z,24.31
2019-01-13T06:30:19.936Z,24.35
2019-01-13T06:31:19.979Z,24.32
2019-01-13T06:32:19.908Z,24.39
2019-01-13T06:33:19.931Z,24.35
2019-01-13T06:34:19.928Z,24.32
2019-01-13T06:35:19.917Z,24.34
2019-01-13T06:36:19.932Z,24.38
2019-01-13T06:37:19.874Z,24.35
2019-01-13T06:38:19.894Z,24.35
2019-01-13T06:39:19.897Z,24.32
2019-01-13T06:40:19.860Z,24.31
2019-01-13T06:41:19.882Z,24.32
2019-01-13T06:42:19.897Z,24.34
2019-01-13T06:43:19.823Z,24.32
2019-01-13T06:44:19.841Z,24.32
2019-01-13T06:45:19.846Z,24.32
2019-01-13T06:46:19.871Z,24.34
2019-01-13T06:47:19.862Z,24.35
2019-01-13T06:48:19.845Z,24.32
2019-01-13T06:49:19.779Z,24.35
2019-01-13T06:50:19.800Z,24.34
2019-01-13T06:51:19.757Z,24.37
2019-01-13T06:52:19.799Z,24.31
2019-01-13T06:53:19.758Z,24.34
2019-01-13T06:54:19.759Z,24.32
2019-01-13T06:55:19.763Z,24.34
2019-01-13T06:56:19.783Z,24.32
2019-01-13T06:57:19.712Z,24.35
2019-01-13T06:58:19.735Z,24.35
2019-01-13T06:59:19.732Z,24.34
2019-01-13T07:00:19.741Z,24.32
2019-01-13T07:01:19.711Z,24.34
2019-01-13T07:02:19.680Z,24.34
2019-01-13T07:03:19.741Z,24.39
2019-01-13T07:04:19.679Z,24.34
2019-01-13T07:05:19.701Z,24.37
2019-01-13T07:06:19.662Z,24.37
2019-01-13T07:07:19.658Z,24.35
2019-01-13T07:08:19.696Z,24.34
2019-01-13T07:09:19.673Z,24.38
2019-01-13T07:10:19.650Z,24.34
2019-01-13T07:11:19.678Z,24.38
2019-01-13T07:12:19.642Z,24.34
2019-01-13T07:13:19.636Z,24.32
2019-01-13T07:14:19.605Z,24.34
2019-01-13T07:15:19.673Z,24.42
2019-01-13T07:16:19.604Z,24.35
2019-01-13T07:17:19.635Z,24.32
2019-01-13T07:18:19.603Z,24.34
2019-01-13T07:19:19.564Z,24.38
2019-01-13T07:20:19.552Z,24.35
2019-01-13T07:21:19.558Z,24.37
2019-01-13T07:22:19.558Z,24.32
2019-01-13T07:23:19.525Z,24.35
2019-01-13T07:24:19.519Z,24.35
2019-01-13T07:25:19.515Z,24.35
2019-01-13T07:26:19.527Z,24.34
2019-01-13T07:27:19.557Z,24.34
2019-01-13T07:28:19.554Z,24.35
2019-01-13T07:29:19.533Z,24.35
2019-01-13T07:30:19.547Z,24.35
2019-01-13T07:31:19.505Z,24.39
2019-01-13T07:32:19.521Z,24.39
2019-01-13T07:33:19.482Z,24.29
2019-01-13T07:34:19.460Z,24.35
2019-01-13T07:35:19.493Z,24.31
2019-01-13T07:36:19.491Z,24.37
2019-01-13T07:37:19.481Z,24.35
2019-01-13T07:38:19.427Z,24.38
2019-01-13T07:39:19.407Z,24.34
2019-01-13T07:40:19.423Z,24.39
2019-01-13T07:41:19.444Z,24.39
2019-01-13T07:42:19.383Z,24.32
2019-01-13T07:43:19.412Z,24.27
2019-01-13T07:44:19.403Z,24.27
2019-01-13T07:45:19.420Z,24.32
2019-01-13T07:46:19.414Z,24.39
2019-01-13T07:47:19.360Z,24.32
2019-01-13T07:48:19.343Z,24.34
2019-01-13T07:49:19.343Z,24.31
2019-01-13T07:50:19.320Z,24.38
2019-01-13T07:51:19.365Z,24.34
2019-01-13T07:52:19.371Z,24.34
2019-01-13T07:53:19.363Z,24.31
2019-01-13T07:54:19.333Z,24.31
2019-01-13T07:55:19.317Z,24.35
2019-01-13T07:56:19.288Z,24.39
2019-01-13T07:57:19.339Z,24.34
2019-01-13T07:58:19.325Z,24.39
2019-01-13T07:59:19.300Z,24.35
2019-01-13T08:00:19.587Z,24.29
2019-01-13T08:01:19.243Z,24.35
2019-01-13T08:02:19.260Z,24.31
2019-01-13T08:03:19.216Z,24.32
2019-01-13T08:04:19.263Z,24.29
2019-01-13T08:05:19.273Z,24.31
2019-01-13T08:06:19.239Z,24.34
2019-01-13T08:07:19.263Z,24.31
2019-01-13T08:08:19.210Z,24.31
2019-01-13T08:09:19.176Z,24.26
2019-01-13T08:10:19.221Z,24.29
2019-01-13T08:11:19.194Z,24.34
2019-01-13T08:12:19.156Z,24.29
2019-01-13T08:13:19.167Z,24.29
2019-01-13T08:14:19.142Z,24.31
2019-01-13T08:15:19.193Z,24.29
2019-01-13T08:16:19.153Z,24.31
2019-01-13T08:17:19.137Z,24.31
2019-01-13T08:18:19.104Z,24.29
2019-01-13T08:19:19.143Z,24.32
2019-01-13T08:20:19.100Z,24.29
2019-01-13T08:21:19.154Z,24.26
2019-01-13T08:22:19.117Z,24.27
2019-01-13T08:23:19.089Z,24.29
2019-01-13T08:24:19.147Z,24.32
2019-01-13T08:25:19.098Z,24.35
2019-01-13T08:26:19.056Z,24.29
2019-01-13T08:27:19.067Z,24.31
2019-01-13T08:28:19.079Z,24.27
2019-01-13T08:29:19.092Z,24.26
2019-01-13T08:30:19.086Z,24.34
2019-01-13T08:31:19.078Z,24.27
2019-01-13T08:32:24.962Z,24.27
2019-01-13T08:33:19.035Z,24.34
2019-01-13T08:34:19.036Z,24.27
2019-01-13T08:35:19.047Z,24.34
2019-01-13T08:36:19.006Z,24.31
2019-01-13T08:37:19.013Z,24.31
2019-01-13T08:38:18.994Z,24.31
2019-01-13T08:39:18.983Z,24.31
2019-01-13T08:40:18.987Z,24.31
2019-01-13T08:41:18.941Z,24.35
2019-01-13T08:42:18.957Z,24.29
2019-01-13T08:43:18.999Z,24.29
2019-01-13T08:44:18.949Z,24.31
2019-01-13T08:45:18.931Z,24.27
2019-01-13T08:46:18.967Z,24.27
2019-01-13T08:47:18.918Z,24.35
2019-01-13T08:48:18.895Z,24.31
2019-01-13T08:49:18.910Z,24.31
2019-01-13T08:50:18.873Z,24.31
2019-01-13T08:51:18.877Z,24.29
2019-01-13T08:52:18.893Z,24.26
2019-01-13T08:53:18.847Z,24.34
2019-01-13T08:54:18.904Z,24.31
2019-01-13T08:55:18.906Z,24.31
2019-01-13T08:56:18.903Z,24.31
2019-01-13T08:57:18.829Z,24.34
2019-01-13T08:58:18.838Z,24.31
2019-01-13T08:59:18.802Z,24.37
2019-01-13T09:00:18.841Z,24.31
2019-01-13T09:01:18.821Z,24.27
2019-01-13T09:02:18.849Z,24.29
2019-01-13T09:03:18.788Z,24.32
2019-01-13T09:04:18.810Z,24.32
2019-01-13T09:05:18.765Z,24.34
2019-01-13T09:06:18.799Z,24.31
2019-01-13T09:07:18.809Z,24.34
2019-01-13T09:08:18.754Z,24.26
2019-01-13T09:09:18.746Z,24.29
2019-01-13T09:10:18.787Z,24.34
2019-01-13T09:11:18.783Z,24.31
2019-01-13T09:12:18.746Z,24.31
2019-01-13T09:13:18.750Z,24.31
2019-01-13T09:14:18.760Z,24.29
2019-01-13T09:15:18.729Z,24.35
2019-01-13T09:16:18.672Z,24.34
2019-01-13T09:17:18.672Z,24.29
2019-01-13T09:18:18.683Z,24.32
2019-01-13T09:19:18.693Z,24.31
2019-01-13T09:20:18.704Z,24.34
2019-01-13T09:21:18.713Z,24.29
2019-01-13T09:22:18.671Z,24.32
2019-01-13T09:23:18.649Z,24.32
2019-01-13T09:24:18.700Z,24.29
2019-01-13T09:25:18.653Z,24.34
2019-01-13T09:26:18.651Z,24.32
2019-01-13T09:27:18.600Z,24.32
2019-01-13T09:28:18.646Z,24.32
2019-01-13T09:29:18.632Z,24.31
2019-01-13T09:30:18.597Z,24.35
2019-01-13T09:31:18.634Z,24.34
2019-01-13T09:32:18.572Z,24.35
2019-01-13T09:33:18.567Z,24.34
2019-01-13T09:34:18.559Z,24.37
2019-01-13T09:35:18.578Z,24.38
2019-01-13T09:36:18.562Z,24.32
2019-01-13T09:37:18.544Z,24.34
2019-01-13T09:38:18.547Z,24.35
2019-01-13T09:39:18.520Z,24.31
2019-01-13T09:40:18.532Z,24.35
2019-01-13T09:41:18.528Z,24.35
2019-01-13T09:42:18.486Z,24.34
2019-01-13T09:43:18.489Z,24.41
2019-01-13T09:44:18.500Z,24.37
2019-01-13T09:45:18.539Z,24.34
2019-01-13T09:46:18.512Z,24.31
2019-01-13T09:47:18.511Z,24.32
2019-01-13T09:48:18.467Z,24.39
2019-01-13T09:49:18.465Z,24.34
2019-01-13T09:50:18.489Z,24.38
2019-01-13T09:51:18.445Z,24.35
2019-01-13T09:52:18.450Z,24.34
2019-01-13T09:53:18.445Z,24.39
2019-01-13T09:54:18.422Z,24.37
2019-01-13T09:55:18.416Z,24.32
2019-01-13T09:56:18.445Z,24.31
2019-01-13T09:57:18.431Z,24.31
2019-01-13T09:58:18.431Z,24.37
2019-01-13T09:59:18.419Z,24.27
2019-01-13T10:00:18.397Z,24.26
2019-01-13T10:01:18.348Z,24.37
2019-01-13T10:02:18.405Z,24.32
2019-01-13T10:03:18.383Z,24.29
2019-01-13T10:04:18.338Z,24.24
2019-01-13T10:05:18.372Z,24.19
2019-01-13T10:06:18.361Z,24.29
2019-01-13T10:07:18.294Z,24.27
2019-01-13T10:08:18.360Z,24.24
2019-01-13T10:09:18.310Z,24.29
2019-01-13T10:10:18.331Z,24.26
2019-01-13T10:11:18.269Z,24.27
2019-01-13T10:12:18.256Z,24.27
2019-01-13T10:13:18.322Z,24.24
2019-01-13T10:14:18.321Z,24.26
2019-01-13T10:15:18.327Z,24.23
2019-01-13T10:16:18.276Z,24.23
2019-01-13T10:17:18.265Z,24.23
2019-01-13T10:18:18.287Z,24.22
2019-01-13T10:19:18.241Z,24.24
2019-01-13T10:20:18.262Z,24.26
2019-01-13T10:21:18.258Z,24.22
2019-01-13T10:22:18.212Z,24.23
2019-01-13T10:23:18.202Z,24.22
2019-01-13T10:24:18.204Z,24.24
2019-01-13T10:25:18.229Z,24.22
2019-01-13T10:26:18.191Z,24.23
2019-01-13T10:27:18.180Z,24.27
2019-01-13T10:28:18.172Z,24.20
2019-01-13T10:29:18.166Z,24.23
2019-01-13T10:30:18.163Z,24.22
2019-01-13T10:31:18.121Z,24.22
2019-01-13T10:32:18.157Z,24.20
2019-01-13T10:33:18.124Z,24.22
2019-01-13T10:34:18.148Z,24.26
2019-01-13T10:35:18.115Z,24.26
2019-01-13T10:36:18.116Z,24.26
2019-01-13T10:37:18.078Z,24.20
2019-01-13T10:38:18.076Z,24.23
2019-01-13T10:39:18.130Z,24.23
2019-01-13T10:40:18.068Z,24.22
2019-01-13T10:41:18.118Z,24.34
2019-01-13T10:42:18.042Z,24.20
2019-01-13T10:43:18.075Z,24.22
2019-01-13T10:44:18.094Z,24.27
2019-01-13T10:45:18.016Z,24.24
2019-01-13T10:46:18.092Z,24.14
2019-01-13T10:47:18.057Z,24.24
2019-01-13T10:48:18.029Z,24.23
2019-01-13T10:49:18.004Z,24.20
2019-01-13T10:50:18.047Z,24.22
2019-01-13T10:51:17.996Z,24.16
2019-01-13T10:52:17.973Z,24.20
2019-01-13T10:53:17.982Z,24.24
2019-01-13T10:54:17.960Z,24.20
2019-01-13T10:55:17.941Z,24.26
2019-01-13T10:56:17.925Z,24.17
2019-01-13T10:57:17.989Z,24.24
2019-01-13T10:58:17.963Z,24.16
2019-01-13T10:59:17.942Z,24.24
2019-01-13T11:00:17.900Z,24.22
2019-01-13T11:01:17.972Z,24.22
2019-01-13T11:02:17.899Z,24.14
2019-01-13T11:03:17.909Z,24.26
2019-01-13T11:04:17.886Z,24.16
2019-01-13T11:05:17.870Z,24.19
2019-01-13T11:06:17.895Z,24.14
2019-01-13T11:07:17.865Z,24.22
2019-01-13T11:08:17.894Z,24.14
2019-01-13T11:09:17.842Z,24.16
2019-01-13T11:10:17.856Z,24.14
2019-01-13T11:11:17.853Z,24.26
2019-01-13T11:12:17.806Z,24.16
2019-01-13T11:13:17.867Z,24.17
2019-01-13T11:14:17.827Z,24.27
2019-01-13T11:15:21.791Z,24.17
2019-01-13T11:16:17.822Z,24.24
2019-01-13T11:17:17.795Z,24.22
2019-01-13T11:18:17.783Z,24.16
2019-01-13T11:19:17.799Z,24.17
2019-01-13T11:20:17.789Z,24.22
2019-01-13T11:21:17.787Z,24.17
2019-01-13T11:22:17.796Z,24.24
2019-01-13T11:23:17.774Z,24.16
2019-01-13T11:24:17.772Z,24.24
2019-01-13T11:25:17.728Z,24.24
2019-01-13T11:26:17.787Z,24.19
2019-01-13T11:27:17.772Z,24.24
2019-01-13T11:28:17.722Z,24.24
2019-01-13T11:29:17.714Z,24.26
2019-01-13T11:30:17.743Z,24.14
2019-01-13T11:31:17.674Z,24.17
2019-01-13T11:32:17.695Z,24.14
2019-01-13T11:33:17.683Z,24.23
2019-01-13T11:34:17.697Z,24.17
2019-01-13T11:35:17.697Z,24.22
2019-01-13T11:36:17.655Z,24.19
2019-01-13T11:37:17.688Z,24.26
2019-01-13T11:38:17.674Z,24.26
2019-01-13T11:39:17.641Z,24.14
2019-01-13T11:40:17.624Z,24.19
2019-01-13T11:41:17.616Z,24.12
2019-01-13T11:42:17.594Z,24.12
2019-01-13T11:43:17.603Z,24.13
2019-01-13T11:44:17.608Z,24.16
2019-01-13T11:45:17.587Z,24.26
2019-01-13T11:46:17.595Z,24.16
2019-01-13T11:47:17.555Z,24.14
2019-01-13T11:48:17.546Z,24.19
2019-01-13T11:49:17.556Z,24.20
2019-01-13T11:50:17.561Z,24.14
2019-01-13T11:51:17.553Z,24.19
2019-01-13T11:52:17.574Z,24.14
2019-01-13T11:53:17.558Z,24.26
2019-01-13T11:54:17.509Z,24.14
2019-01-13T11:55:17.514Z,24.27
2019-01-13T11:56:17.529Z,24.24
2019-01-13T11:57:17.537Z,24.16
2019-01-13T11:58:17.479Z,24.27
2019-01-13T11:59:17.486Z,24.19
2019-01-13T12:00:17.518Z,24.26
2019-01-13T12:01:17.519Z,24.20
2019-01-13T12:02:17.491Z,24.26
2019-01-13T12:03:17.465Z,24.19
2019-01-13T12:04:17.463Z,24.26
2019-01-13T12:05:17.404Z,24.14
2019-01-13T12:06:17.432Z,24.16
2019-01-13T12:07:17.405Z,24.24
2019-01-13T12:08:17.420Z,24.16
2019-01-13T12:09:17.422Z,24.14
2019-01-13T12:10:17.409Z,24.20
2019-01-13T12:11:17.426Z,24.23
2019-01-13T12:12:17.370Z,24.24
2019-01-13T12:13:17.419Z,24.26
2019-01-13T12:14:17.405Z,24.16
2019-01-13T12:15:17.335Z,24.26
2019-01-13T12:16:17.402Z,24.16
2019-01-13T12:17:17.353Z,24.17
2019-01-13T12:18:17.354Z,24.29
2019-01-13T12:19:17.358Z,24.20
2019-01-13T12:20:17.354Z,24.26
2019-01-13T12:21:17.296Z,24.17
2019-01-13T12:22:17.349Z,24.20
2019-01-13T12:23:17.281Z,24.23
2019-01-13T12:24:17.304Z,24.26
2019-01-13T12:25:17.302Z,24.23
2019-01-13T12:26:17.330Z,24.27
2019-01-13T12:27:17.304Z,24.16
2019-01-13T12:28:17.272Z,24.20
2019-01-13T12:29:17.266Z,24.23
2019-01-13T12:30:17.232Z,24.16
2019-01-13T12:31:17.258Z,24.20
2019-01-13T12:32:17.274Z,24.27
2019-01-13T12:33:24.289Z,24.27
2019-01-13T12:34:17.239Z,24.22
2019-01-13T12:35:17.188Z,24.16
2019-01-13T12:36:17.215Z,24.23
2019-01-13T12:37:17.232Z,24.20
2019-01-13T12:38:17.165Z,24.17
2019-01-13T12:39:17.186Z,24.26
2019-01-13T12:40:17.204Z,24.26
2019-01-13T12:41:17.205Z,24.24
2019-01-13T12:42:17.166Z,24.16
2019-01-13T12:43:17.169Z,24.22
2019-01-13T12:44:17.113Z,24.20
2019-01-13T12:45:17.134Z,24.20
2019-01-13T12:46:17.159Z,24.13
2019-01-13T12:47:17.160Z,24.27
2019-01-13T12:48:17.154Z,24.27
2019-01-13T12:49:17.101Z,24.22
2019-01-13T12:50:17.128Z,24.19
2019-01-13T12:51:17.131Z,24.20
2019-01-13T12:52:17.104Z,24.19